Information Last Ob Photographs Calibration Meteogram Network Table Neighbors Monthly Summaries Observation History Wind Roses Custom Wind Roses Data Calendar Satellite Cloud Product Download

02 March 2024 Observation History, [LRJ] LE MARS, timezone: America/Chicago

Select Date: Time Order:

Show METARs   Show High Frequency MADIS

Previous Day
Time Wind
(mph)
Vis.
(mi.)
Sky Cond.
(100s ft)
Present Wx Temperature (ºF) Relative
Humidity
Pressure Snow
Depth
(in)
Precipitation (in.)
Air Dwpt Feels Like 6 hour altimeter
(in.)
sea level
(mb)
1 hr 3 hr 6 hr
Max.Min.
12:15 AMS 1310 CLR
393432 81% 29.80
KLRJ 020615Z AUTO 17011KT 10SM CLR 04/01 A2980 RMK AO2
12:35 AMS 1310 CLR
373429 87% 29.80
KLRJ 020635Z AUTO 18011KT 10SM CLR 03/01 A2980 RMK AO2
12:55 AMS 1510 CLR
393431 81% 29.80
KLRJ 020655Z AUTO 17013KT 10SM CLR 04/01 A2980 RMK AO2
1:15 AMS 1610 CLR
393430 81% 29.80
KLRJ 020715Z AUTO 17014KT 10SM CLR 04/01 A2980 RMK AO2
1:35 AMS 1310 CLR
393432 81% 29.810
KLRJ 020735Z AUTO 17011KT 10SM CLR 04/01 A2981 RMK AO2
1:55 AMS 1310 CLR
393432 81% 29.810
KLRJ 020755Z AUTO 17011KT 10SM CLR 04/01 A2981 RMK AO2

The IEM API webservice that provided data to this page. For more details, see documentation.

Data Notes

  • For recent years, this page also optionally shows observations from the MADIS High Frequency METAR dataset. This dataset had a problem with temperatures detailed here.